sensor_id;sensor_type;location;lat;lon;timestamp;pressure;altitude;pressure_sealevel;temperature;humidity
64713;BME280;51140;45.340;5.980;2023-07-29T00:00:21;97959.56;;;20.68;79.18
64713;BME280;51140;45.340;5.980;2023-07-29T00:02:46;97965.88;;;20.84;78.58
64713;BME280;51140;45.340;5.980;2023-07-29T00:05:12;97969.28;;;20.93;78.10
64713;BME280;51140;45.340;5.980;2023-07-29T00:07:37;97959.13;;;20.78;80.24
64713;BME280;51140;45.340;5.980;2023-07-29T00:10:03;97968.34;;;20.89;79.60
64713;BME280;51140;45.340;5.980;2023-07-29T00:12:28;97974.66;;;20.93;78.01
64713;BME280;51140;45.340;5.980;2023-07-29T00:14:54;97974.44;;;20.98;78.01
64713;BME280;51140;45.340;5.980;2023-07-29T00:17:20;97977.59;;;21.00;77.86
64713;BME280;51140;45.340;5.980;2023-07-29T00:19:46;97983.50;;;21.15;78.18
64713;BME280;51140;45.340;5.980;2023-07-29T00:22:11;97970.84;;;21.06;78.97
64713;BME280;51140;45.340;5.980;2023-07-29T00:24:37;97971.91;;;21.14;78.83
64713;BME280;51140;45.340;5.980;2023-07-29T00:27:02;97976.97;;;21.28;78.52
64713;BME280;51140;45.340;5.980;2023-07-29T00:29:27;97991.38;;;21.07;79.56
64713;BME280;51140;45.340;5.980;2023-07-29T00:31:53;97987.25;;;20.77;77.74
64713;BME280;51140;45.340;5.980;2023-07-29T00:34:18;97983.53;;;20.82;77.49
64713;BME280;51140;45.340;5.980;2023-07-29T00:36:45;97988.72;;;20.99;77.70
64713;BME280;51140;45.340;5.980;2023-07-29T00:39:11;97984.34;;;20.94;78.54
64713;BME280;51140;45.340;5.980;2023-07-29T00:41:36;97977.13;;;20.86;79.63
64713;BME280;51140;45.340;5.980;2023-07-29T00:44:02;97978.47;;;20.80;78.26
64713;BME280;51140;45.340;5.980;2023-07-29T00:46:28;97980.97;;;20.85;79.29
64713;BME280;51140;45.340;5.980;2023-07-29T00:48:55;97982.53;;;20.98;79.28
64713;BME280;51140;45.340;5.980;2023-07-29T00:51:20;97969.53;;;21.13;78.45
64713;BME280;51140;45.340;5.980;2023-07-29T00:53:45;97994.56;;;21.01;78.07
64713;BME280;51140;45.340;5.980;2023-07-29T00:56:11;98011.78;;;20.96;78.93
64713;BME280;51140;45.340;5.980;2023-07-29T00:58:38;98001.88;;;20.88;79.37
64713;BME280;51140;45.340;5.980;2023-07-29T01:01:03;98008.13;;;21.13;78.63
64713;BME280;51140;45.340;5.980;2023-07-29T01:03:28;98005.75;;;21.24;76.87
64713;BME280;51140;45.340;5.980;2023-07-29T01:06:12;98003.03;;;20.99;79.11
64713;BME280;51140;45.340;5.980;2023-07-29T01:08:50;98006.81;;;20.98;78.35
64713;BME280;51140;45.340;5.980;2023-07-29T01:14:23;97999.88;;;20.97;78.53
64713;BME280;51140;45.340;5.980;2023-07-29T01:16:55;97997.06;;;20.94;79.24
64713;BME280;51140;45.340;5.980;2023-07-29T01:21:49;98005.38;;;20.89;79.58
64713;BME280;51140;45.340;5.980;2023-07-29T01:24:15;98014.03;;;21.06;79.71
64713;BME280;51140;45.340;5.980;2023-07-29T01:26:41;98014.00;;;20.82;81.26
64713;BME280;51140;45.340;5.980;2023-07-29T01:29:06;98008.06;;;20.89;81.00
64713;BME280;51140;45.340;5.980;2023-07-29T01:31:41;98010.72;;;20.77;81.18
64713;BME280;51140;45.340;5.980;2023-07-29T01:34:24;97997.19;;;20.11;82.94
64713;BME280;51140;45.340;5.980;2023-07-29T01:36:52;97994.06;;;20.00;82.77
64713;BME280;51140;45.340;5.980;2023-07-29T01:39:20;97993.28;;;20.21;82.17
64713;BME280;51140;45.340;5.980;2023-07-29T01:41:48;97993.56;;;20.48;81.27
64713;BME280;51140;45.340;5.980;2023-07-29T01:44:14;97998.16;;;20.48;81.14
64713;BME280;51140;45.340;5.980;2023-07-29T01:46:39;98000.31;;;20.54;81.19
64713;BME280;51140;45.340;5.980;2023-07-29T01:49:05;98002.94;;;20.22;79.35
64713;BME280;51140;45.340;5.980;2023-07-29T01:51:30;97985.69;;;20.23;80.68
64713;BME280;51140;45.340;5.980;2023-07-29T01:53:55;97996.84;;;20.13;79.76
64713;BME280;51140;45.340;5.980;2023-07-29T01:56:21;97995.28;;;20.32;80.86
64713;BME280;51140;45.340;5.980;2023-07-29T01:58:46;97994.81;;;20.30;79.66
64713;BME280;51140;45.340;5.980;2023-07-29T02:01:12;97995.53;;;20.19;79.71
64713;BME280;51140;45.340;5.980;2023-07-29T02:03:37;97991.72;;;20.20;80.92
64713;BME280;51140;45.340;5.980;2023-07-29T02:06:03;97981.84;;;20.24;80.30
64713;BME280;51140;45.340;5.980;2023-07-29T02:08:28;97985.41;;;20.16;80.01
64713;BME280;51140;45.340;5.980;2023-07-29T02:10:53;97988.69;;;20.21;79.60
64713;BME280;51140;45.340;5.980;2023-07-29T02:13:19;97992.00;;;20.27;79.41
64713;BME280;51140;45.340;5.980;2023-07-29T02:15:44;97992.13;;;20.30;78.83
64713;BME280;51140;45.340;5.980;2023-07-29T02:18:10;97998.88;;;20.16;79.84
64713;BME280;51140;45.340;5.980;2023-07-29T02:20:35;97993.41;;;20.04;79.27
64713;BME280;51140;45.340;5.980;2023-07-29T02:23:02;97993.22;;;19.88;79.77
64713;BME280;51140;45.340;5.980;2023-07-29T02:25:27;97991.91;;;19.73;81.01
64713;BME280;51140;45.340;5.980;2023-07-29T02:27:52;98000.09;;;19.56;81.09
64713;BME280;51140;45.340;5.980;2023-07-29T02:30:18;97996.53;;;19.64;81.47
64713;BME280;51140;45.340;5.980;2023-07-29T02:32:43;97997.09;;;19.58;81.33
64713;BME280;51140;45.340;5.980;2023-07-29T02:35:10;98000.47;;;19.46;80.74
64713;BME280;51140;45.340;5.980;2023-07-29T02:37:35;98004.81;;;19.59;81.07
64713;BME280;51140;45.340;5.980;2023-07-29T02:40:00;98008.31;;;19.60;80.79
64713;BME280;51140;45.340;5.980;2023-07-29T02:42:26;97997.19;;;19.61;80.59
64713;BME280;51140;45.340;5.980;2023-07-29T02:44:51;97998.50;;;19.55;81.05
64713;BME280;51140;45.340;5.980;2023-07-29T02:47:16;97998.94;;;19.66;80.77
64713;BME280;51140;45.340;5.980;2023-07-29T02:49:42;98006.66;;;19.67;82.03
64713;BME280;51140;45.340;5.980;2023-07-29T02:52:07;98014.34;;;19.86;80.56
64713;BME280;51140;45.340;5.980;2023-07-29T02:54:32;98013.06;;;20.04;80.68
64713;BME280;51140;45.340;5.980;2023-07-29T02:56:58;98014.56;;;19.72;80.40
64713;BME280;51140;45.340;5.980;2023-07-29T02:59:23;98024.06;;;19.70;80.32
64713;BME280;51140;45.340;5.980;2023-07-29T03:01:48;98012.34;;;19.74;80.99
64713;BME280;51140;45.340;5.980;2023-07-29T03:04:14;98015.63;;;19.80;81.18
64713;BME280;51140;45.340;5.980;2023-07-29T03:06:39;98007.50;;;19.88;80.01
64713;BME280;51140;45.340;5.980;2023-07-29T03:09:04;98016.69;;;19.87;80.99
64713;BME280;51140;45.340;5.980;2023-07-29T03:11:30;98009.34;;;19.96;81.58
64713;BME280;51140;45.340;5.980;2023-07-29T03:13:56;98016.09;;;19.82;80.77
64713;BME280;51140;45.340;5.980;2023-07-29T03:16:22;98020.31;;;19.62;80.64
64713;BME280;51140;45.340;5.980;2023-07-29T03:18:48;98023.88;;;19.54;81.70
64713;BME280;51140;45.340;5.980;2023-07-29T03:21:14;98021.56;;;19.65;81.38
64713;BME280;51140;45.340;5.980;2023-07-29T03:23:40;98015.09;;;19.86;81.04
64713;BME280;51140;45.340;5.980;2023-07-29T03:26:05;98015.84;;;19.95;80.96
64713;BME280;51140;45.340;5.980;2023-07-29T03:28:41;98018.66;;;19.99;81.09
64713;BME280;51140;45.340;5.980;2023-07-29T03:31:07;97999.41;;;19.88;79.63
64713;BME280;51140;45.340;5.980;2023-07-29T03:33:32;98008.81;;;19.82;80.21
64713;BME280;51140;45.340;5.980;2023-07-29T03:35:58;98002.69;;;19.73;80.92
64713;BME280;51140;45.340;5.980;2023-07-29T03:38:23;98001.81;;;19.81;81.60
64713;BME280;51140;45.340;5.980;2023-07-29T03:40:49;98001.50;;;20.04;81.19
64713;BME280;51140;45.340;5.980;2023-07-29T03:43:14;98001.84;;;20.23;80.81
64713;BME280;51140;45.340;5.980;2023-07-29T03:45:40;98004.41;;;19.98;81.01
64713;BME280;51140;45.340;5.980;2023-07-29T03:48:05;98001.69;;;19.98;81.42
64713;BME280;51140;45.340;5.980;2023-07-29T03:50:33;98004.56;;;19.73;82.36
64713;BME280;51140;45.340;5.980;2023-07-29T03:52:59;97998.13;;;19.65;82.56
64713;BME280;51140;45.340;5.980;2023-07-29T03:55:24;97998.41;;;19.72;82.43
64713;BME280;51140;45.340;5.980;2023-07-29T03:57:49;98004.47;;;19.61;82.76
64713;BME280;51140;45.340;5.980;2023-07-29T04:00:15;97993.41;;;19.62;83.06
64713;BME280;51140;45.340;5.980;2023-07-29T04:02:41;97999.19;;;19.73;82.71
64713;BME280;51140;45.340;5.980;2023-07-29T04:05:07;97991.81;;;19.61;83.48
64713;BME280;51140;45.340;5.980;2023-07-29T04:07:36;97996.38;;;19.90;82.51
64713;BME280;51140;45.340;5.980;2023-07-29T04:10:02;97989.28;;;19.85;82.26
64713;BME280;51140;45.340;5.980;2023-07-29T04:12:28;97995.53;;;19.98;82.39
64713;BME280;51140;45.340;5.980;2023-07-29T04:14:53;97988.81;;;19.83;82.78
64713;BME280;51140;45.340;5.980;2023-07-29T04:17:18;97984.34;;;19.87;82.43
64713;BME280;51140;45.340;5.980;2023-07-29T04:19:44;97989.97;;;19.53;83.40
64713;BME280;51140;45.340;5.980;2023-07-29T04:22:09;97991.03;;;19.61;82.82
64713;BME280;51140;45.340;5.980;2023-07-29T04:24:35;97998.75;;;19.91;81.68
64713;BME280;51140;45.340;5.980;2023-07-29T04:27:00;97995.41;;;19.36;83.35
64713;BME280;51140;45.340;5.980;2023-07-29T04:29:25;97999.38;;;18.92;85.35
64713;BME280;51140;45.340;5.980;2023-07-29T04:31:51;97996.84;;;19.33;84.43
64713;BME280;51140;45.340;5.980;2023-07-29T04:34:20;97996.03;;;19.41;83.34
64713;BME280;51140;45.340;5.980;2023-07-29T04:36:46;97995.16;;;19.29;83.43
64713;BME280;51140;45.340;5.980;2023-07-29T04:39:12;98002.72;;;18.89;84.19
64713;BME280;51140;45.340;5.980;2023-07-29T04:41:37;98005.59;;;18.75;85.24
64713;BME280;51140;45.340;5.980;2023-07-29T04:44:02;98002.41;;;18.82;84.55
64713;BME280;51140;45.340;5.980;2023-07-29T04:46:28;98000.03;;;18.98;84.14
64713;BME280;51140;45.340;5.980;2023-07-29T04:48:53;98006.53;;;18.88;84.09
64713;BME280;51140;45.340;5.980;2023-07-29T04:51:19;98006.44;;;19.14;83.47
64713;BME280;51140;45.340;5.980;2023-07-29T04:53:44;98008.31;;;19.22;83.74
64713;BME280;51140;45.340;5.980;2023-07-29T04:56:10;98005.78;;;19.17;83.92
64713;BME280;51140;45.340;5.980;2023-07-29T04:58:36;98009.41;;;19.21;83.43
64713;BME280;51140;45.340;5.980;2023-07-29T05:01:02;98012.84;;;19.30;82.46
64713;BME280;51140;45.340;5.980;2023-07-29T05:03:28;98002.88;;;19.39;82.12
64713;BME280;51140;45.340;5.980;2023-07-29T05:05:53;98015.19;;;19.49;82.00
64713;BME280;51140;45.340;5.980;2023-07-29T05:08:20;98015.19;;;19.49;82.21
64713;BME280;51140;45.340;5.980;2023-07-29T05:10:49;98013.75;;;19.51;82.62
64713;BME280;51140;45.340;5.980;2023-07-29T05:13:15;98017.34;;;19.84;80.60
64713;BME280;51140;45.340;5.980;2023-07-29T05:15:41;98027.31;;;19.63;81.40
64713;BME280;51140;45.340;5.980;2023-07-29T05:18:06;98022.22;;;19.91;82.04
64713;BME280;51140;45.340;5.980;2023-07-29T05:20:31;98028.94;;;19.47;83.18
64713;BME280;51140;45.340;5.980;2023-07-29T05:22:57;98030.47;;;19.19;84.06
64713;BME280;51140;45.340;5.980;2023-07-29T05:25:22;98025.53;;;19.21;84.71
64713;BME280;51140;45.340;5.980;2023-07-29T05:27:47;98029.13;;;19.42;84.50
64713;BME280;51140;45.340;5.980;2023-07-29T05:30:13;98024.78;;;19.58;83.63
64713;BME280;51140;45.340;5.980;2023-07-29T05:32:38;98024.31;;;19.56;83.49
64713;BME280;51140;45.340;5.980;2023-07-29T05:35:04;98017.69;;;19.54;84.13
64713;BME280;51140;45.340;5.980;2023-07-29T05:37:29;98017.53;;;19.79;82.74
64713;BME280;51140;45.340;5.980;2023-07-29T05:39:54;98014.56;;;19.72;82.13
64713;BME280;51140;45.340;5.980;2023-07-29T05:42:20;98010.94;;;19.97;82.48
64713;BME280;51140;45.340;5.980;2023-07-29T05:44:45;98014.16;;;20.12;82.02
64713;BME280;51140;45.340;5.980;2023-07-29T05:47:10;98009.88;;;20.11;82.88
64713;BME280;51140;45.340;5.980;2023-07-29T05:49:36;98007.66;;;19.25;84.43
64713;BME280;51140;45.340;5.980;2023-07-29T05:52:01;97998.19;;;19.19;85.49
64713;BME280;51140;45.340;5.980;2023-07-29T05:54:26;97996.78;;;19.13;85.87
64713;BME280;51140;45.340;5.980;2023-07-29T05:56:52;97993.88;;;19.26;85.00
64713;BME280;51140;45.340;5.980;2023-07-29T05:59:17;97996.44;;;19.52;84.74
64713;BME280;51140;45.340;5.980;2023-07-29T06:01:42;97995.09;;;19.46;84.86
64713;BME280;51140;45.340;5.980;2023-07-29T06:04:08;98001.06;;;19.52;85.11
64713;BME280;51140;45.340;5.980;2023-07-29T06:06:33;97998.28;;;19.69;85.56
64713;BME280;51140;45.340;5.980;2023-07-29T06:08:59;97996.53;;;19.93;85.08
64713;BME280;51140;45.340;5.980;2023-07-29T06:11:24;98001.63;;;20.07;84.23
64713;BME280;51140;45.340;5.980;2023-07-29T06:13:50;98008.56;;;20.17;83.06
64713;BME280;51140;45.340;5.980;2023-07-29T06:16:15;98003.81;;;19.93;83.77
64713;BME280;51140;45.340;5.980;2023-07-29T06:18:40;97999.53;;;19.71;82.71
64713;BME280;51140;45.340;5.980;2023-07-29T06:21:06;98002.63;;;19.53;83.80
64713;BME280;51140;45.340;5.980;2023-07-29T06:23:33;98001.84;;;19.52;84.18
64713;BME280;51140;45.340;5.980;2023-07-29T06:25:59;97995.75;;;19.64;82.91
64713;BME280;51140;45.340;5.980;2023-07-29T06:28:26;97993.00;;;19.72;83.84
64713;BME280;51140;45.340;5.980;2023-07-29T06:30:52;97996.00;;;20.00;82.92
64713;BME280;51140;45.340;5.980;2023-07-29T06:33:17;98004.28;;;20.16;82.00
64713;BME280;51140;45.340;5.980;2023-07-29T06:35:43;98003.28;;;19.99;81.15
64713;BME280;51140;45.340;5.980;2023-07-29T06:38:08;97998.16;;;19.86;81.62
64713;BME280;51140;45.340;5.980;2023-07-29T06:40:34;98011.38;;;20.20;81.04
64713;BME280;51140;45.340;5.980;2023-07-29T06:42:59;98006.31;;;20.39;81.17
64713;BME280;51140;45.340;5.980;2023-07-29T06:45:25;98006.13;;;20.44;79.61
64713;BME280;51140;45.340;5.980;2023-07-29T06:47:50;98003.75;;;20.43;78.38
64713;BME280;51140;45.340;5.980;2023-07-29T06:50:15;97995.84;;;20.38;78.03
64713;BME280;51140;45.340;5.980;2023-07-29T06:52:41;97999.28;;;20.47;79.39
64713;BME280;51140;45.340;5.980;2023-07-29T06:55:06;97995.22;;;20.74;79.99
64713;BME280;51140;45.340;5.980;2023-07-29T06:57:32;98003.69;;;20.96;80.74
64713;BME280;51140;45.340;5.980;2023-07-29T06:59:57;98006.66;;;21.16;79.81
64713;BME280;51140;45.340;5.980;2023-07-29T07:02:23;98006.81;;;20.98;79.34
64713;BME280;51140;45.340;5.980;2023-07-29T07:04:48;98007.69;;;20.78;80.35
64713;BME280;51140;45.340;5.980;2023-07-29T07:07:15;98010.25;;;20.75;80.72
64713;BME280;51140;45.340;5.980;2023-07-29T07:09:40;98002.78;;;20.92;79.24
64713;BME280;51140;45.340;5.980;2023-07-29T07:12:06;98002.84;;;20.84;80.06
64713;BME280;51140;45.340;5.980;2023-07-29T07:14:31;98009.03;;;21.17;78.03
64713;BME280;51140;45.340;5.980;2023-07-29T07:16:57;97996.66;;;21.52;77.71
64713;BME280;51140;45.340;5.980;2023-07-29T07:19:22;98001.72;;;21.66;77.29
64713;BME280;51140;45.340;5.980;2023-07-29T07:21:48;98002.38;;;21.75;78.12
64713;BME280;51140;45.340;5.980;2023-07-29T07:24:13;98002.13;;;22.04;77.04
64713;BME280;51140;45.340;5.980;2023-07-29T07:26:38;98000.59;;;22.31;76.53
64713;BME280;51140;45.340;5.980;2023-07-29T07:29:04;97998.19;;;22.42;78.21
64713;BME280;51140;45.340;5.980;2023-07-29T07:31:33;98001.72;;;22.30;76.64
64713;BME280;51140;45.340;5.980;2023-07-29T07:33:58;97996.91;;;22.79;74.23
64713;BME280;51140;45.340;5.980;2023-07-29T07:36:24;97997.25;;;23.09;74.07
64713;BME280;51140;45.340;5.980;2023-07-29T07:38:49;98001.28;;;22.99;74.39
64713;BME280;51140;45.340;5.980;2023-07-29T07:41:15;97996.56;;;22.96;73.72
64713;BME280;51140;45.340;5.980;2023-07-29T07:43:40;97989.28;;;23.78;69.55
64713;BME280;51140;45.340;5.980;2023-07-29T07:46:05;97997.03;;;24.15;66.84
64713;BME280;51140;45.340;5.980;2023-07-29T07:48:31;98004.56;;;23.86;68.10
64713;BME280;51140;45.340;5.980;2023-07-29T07:50:58;98010.53;;;23.61;68.93
64713;BME280;51140;45.340;5.980;2023-07-29T07:53:23;98013.63;;;23.94;67.42
64713;BME280;51140;45.340;5.980;2023-07-29T07:55:50;98012.38;;;24.07;68.16
64713;BME280;51140;45.340;5.980;2023-07-29T07:58:16;98011.63;;;23.41;67.00
64713;BME280;51140;45.340;5.980;2023-07-29T08:00:41;98004.34;;;23.29;68.21
64713;BME280;51140;45.340;5.980;2023-07-29T08:03:07;98015.34;;;23.52;70.73
64713;BME280;51140;45.340;5.980;2023-07-29T08:05:32;98018.94;;;23.71;74.32
64713;BME280;51140;45.340;5.980;2023-07-29T08:07:58;98020.41;;;24.38;70.73
64713;BME280;51140;45.340;5.980;2023-07-29T08:10:23;98017.72;;;24.04;65.52
64713;BME280;51140;45.340;5.980;2023-07-29T08:12:49;98022.44;;;23.41;67.18
64713;BME280;51140;45.340;5.980;2023-07-29T08:15:14;98020.19;;;23.43;71.13
64713;BME280;51140;45.340;5.980;2023-07-29T08:17:39;98017.00;;;23.72;70.08
64713;BME280;51140;45.340;5.980;2023-07-29T08:20:05;98014.25;;;23.87;70.42
64713;BME280;51140;45.340;5.980;2023-07-29T08:22:31;98025.56;;;24.63;70.96
64713;BME280;51140;45.340;5.980;2023-07-29T08:24:57;98020.19;;;24.47;70.22
64713;BME280;51140;45.340;5.980;2023-07-29T08:27:22;98016.81;;;24.34;69.14
64713;BME280;51140;45.340;5.980;2023-07-29T08:29:47;98015.97;;;24.11;68.34
64713;BME280;51140;45.340;5.980;2023-07-29T08:32:13;98018.16;;;24.63;71.00
64713;BME280;51140;45.340;5.980;2023-07-29T08:34:38;98024.22;;;25.40;66.93
64713;BME280;51140;45.340;5.980;2023-07-29T08:37:03;98023.94;;;26.87;61.63
64713;BME280;51140;45.340;5.980;2023-07-29T08:39:29;98030.50;;;27.23;60.72
64713;BME280;51140;45.340;5.980;2023-07-29T08:42:04;98027.91;;;28.53;56.13
64713;BME280;51140;45.340;5.980;2023-07-29T08:44:43;98045.28;;;29.60;50.92
64713;BME280;51140;45.340;5.980;2023-07-29T08:47:08;98003.50;;;29.48;50.87
64713;BME280;51140;45.340;5.980;2023-07-29T08:49:35;98032.41;;;29.67;50.32
64713;BME280;51140;45.340;5.980;2023-07-29T08:52:02;98083.22;;;30.03;47.36
64713;BME280;51140;45.340;5.980;2023-07-29T08:54:27;98045.63;;;30.15;48.51
64713;BME280;51140;45.340;5.980;2023-07-29T08:56:53;98037.44;;;30.15;47.85
64713;BME280;51140;45.340;5.980;2023-07-29T08:59:19;98148.63;;;31.16;43.95
64713;BME280;51140;45.340;5.980;2023-07-29T09:01:46;98081.28;;;31.12;46.22
64713;BME280;51140;45.340;5.980;2023-07-29T09:04:12;98144.59;;;30.31;43.60
64713;BME280;51140;45.340;5.980;2023-07-29T09:06:39;98048.44;;;29.58;46.31
64713;BME280;51140;45.340;5.980;2023-07-29T09:09:04;97986.22;;;28.63;47.42
64713;BME280;51140;45.340;5.980;2023-07-29T09:11:30;97857.75;;;28.14;52.07
64713;BME280;51140;45.340;5.980;2023-07-29T09:13:56;97884.09;;;27.81;52.68
64713;BME280;51140;45.340;5.980;2023-07-29T09:16:22;97935.03;;;27.63;54.96
64713;BME280;51140;45.340;5.980;2023-07-29T09:18:48;97995.09;;;27.23;57.47
64713;BME280;51140;45.340;5.980;2023-07-29T09:21:18;97993.00;;;27.06;59.76
64713;BME280;51140;45.340;5.980;2023-07-29T09:23:49;97995.09;;;26.79;60.97
64713;BME280;51140;45.340;5.980;2023-07-29T09:26:22;97997.19;;;26.59;57.50
64713;BME280;51140;45.340;5.980;2023-07-29T09:28:51;97992.91;;;26.95;56.75
64713;BME280;51140;45.340;5.980;2023-07-29T09:31:21;98002.34;;;27.05;53.33
64713;BME280;51140;45.340;5.980;2023-07-29T09:33:47;97982.00;;;26.95;60.87
64713;BME280;51140;45.340;5.980;2023-07-29T09:36:12;97979.66;;;26.94;56.75
64713;BME280;51140;45.340;5.980;2023-07-29T09:38:38;97984.75;;;26.99;58.25
64713;BME280;51140;45.340;5.980;2023-07-29T09:41:04;98000.53;;;26.79;53.79
64713;BME280;51140;45.340;5.980;2023-07-29T09:43:31;97983.75;;;27.17;53.76
64713;BME280;51140;45.340;5.980;2023-07-29T09:46:04;97966.88;;;27.01;58.69
64713;BME280;51140;45.340;5.980;2023-07-29T09:48:37;97992.91;;;27.39;53.04
64713;BME280;51140;45.340;5.980;2023-07-29T09:51:15;97967.88;;;27.26;52.29
64713;BME280;51140;45.340;5.980;2023-07-29T09:53:45;97979.81;;;27.11;55.74
64713;BME280;51140;45.340;5.980;2023-07-29T09:56:12;98000.41;;;27.53;52.52
64713;BME280;51140;45.340;5.980;2023-07-29T09:58:37;98043.66;;;27.54;49.80
64713;BME280;51140;45.340;5.980;2023-07-29T10:01:07;97966.47;;;27.43;58.16
64713;BME280;51140;45.340;5.980;2023-07-29T10:03:34;98016.34;;;27.07;50.83
64713;BME280;51140;45.340;5.980;2023-07-29T10:06:04;97903.28;;;27.31;54.03
64713;BME280;51140;45.340;5.980;2023-07-29T10:08:30;98013.13;;;26.94;50.81
64713;BME280;51140;45.340;5.980;2023-07-29T10:10:59;97977.78;;;27.01;51.06
64713;BME280;51140;45.340;5.980;2023-07-29T10:13:25;97969.88;;;26.89;56.95
64713;BME280;51140;45.340;5.980;2023-07-29T10:15:52;97999.06;;;26.89;51.32
64713;BME280;51140;45.340;5.980;2023-07-29T10:18:18;97885.38;;;26.79;58.93
64713;BME280;51140;45.340;5.980;2023-07-29T10:20:44;97959.06;;;27.00;54.10
64713;BME280;51140;45.340;5.980;2023-07-29T10:23:12;97935.72;;;26.99;54.56
64713;BME280;51140;45.340;5.980;2023-07-29T10:25:43;97952.66;;;27.22;54.54
64713;BME280;51140;45.340;5.980;2023-07-29T10:28:12;97941.13;;;27.43;53.66
64713;BME280;51140;45.340;5.980;2023-07-29T10:30:38;97971.50;;;27.41;50.94
64713;BME280;51140;45.340;5.980;2023-07-29T10:33:05;97912.75;;;27.00;53.71
64713;BME280;51140;45.340;5.980;2023-07-29T10:35:34;97940.25;;;27.28;59.59
64713;BME280;51140;45.340;5.980;2023-07-29T10:38:02;97976.31;;;27.58;51.94
64713;BME280;51140;45.340;5.980;2023-07-29T10:40:46;97945.09;;;27.52;50.88
64713;BME280;51140;45.340;5.980;2023-07-29T10:43:15;97964.94;;;28.07;50.53
64713;BME280;51140;45.340;5.980;2023-07-29T10:45:43;97941.06;;;27.94;52.86
64713;BME280;51140;45.340;5.980;2023-07-29T10:48:12;97979.06;;;28.30;51.37
64713;BME280;51140;45.340;5.980;2023-07-29T10:50:38;97930.63;;;28.17;51.59
64713;BME280;51140;45.340;5.980;2023-07-29T10:53:04;97930.31;;;28.32;53.95
64713;BME280;51140;45.340;5.980;2023-07-29T10:55:33;97975.13;;;28.24;48.82
64713;BME280;51140;45.340;5.980;2023-07-29T10:58:14;97980.66;;;28.42;47.97
64713;BME280;51140;45.340;5.980;2023-07-29T11:00:43;97908.03;;;28.13;52.10
64713;BME280;51140;45.340;5.980;2023-07-29T11:03:09;97947.00;;;28.10;50.82
64713;BME280;51140;45.340;5.980;2023-07-29T11:05:47;97958.13;;;27.80;50.38
64713;BME280;51140;45.340;5.980;2023-07-29T11:11:06;97952.22;;;27.67;51.04
64713;BME280;51140;45.340;5.980;2023-07-29T11:13:35;97952.56;;;27.59;51.14
64713;BME280;51140;45.340;5.980;2023-07-29T11:16:02;97914.41;;;27.66;55.29
64713;BME280;51140;45.340;5.980;2023-07-29T11:18:29;97926.59;;;27.86;53.97
64713;BME280;51140;45.340;5.980;2023-07-29T11:20:56;97940.56;;;27.74;51.08
64713;BME280;51140;45.340;5.980;2023-07-29T11:23:29;97921.16;;;27.28;51.54
64713;BME280;51140;45.340;5.980;2023-07-29T11:25:55;97860.13;;;27.43;54.29
64713;BME280;51140;45.340;5.980;2023-07-29T11:28:21;97914.75;;;27.57;55.04
64713;BME280;51140;45.340;5.980;2023-07-29T11:30:47;97924.06;;;27.49;51.80
64713;BME280;51140;45.340;5.980;2023-07-29T11:33:14;97855.09;;;27.42;54.82
64713;BME280;51140;45.340;5.980;2023-07-29T11:35:42;97922.84;;;28.15;52.17
64713;BME280;51140;45.340;5.980;2023-07-29T11:38:07;97916.78;;;27.74;53.06
64713;BME280;51140;45.340;5.980;2023-07-29T11:40:33;97910.91;;;27.69;52.38
64713;BME280;51140;45.340;5.980;2023-07-29T11:42:58;97878.22;;;27.14;55.35
64713;BME280;51140;45.340;5.980;2023-07-29T11:45:23;97898.38;;;27.03;54.93
64713;BME280;51140;45.340;5.980;2023-07-29T11:47:49;97930.25;;;26.95;52.22
64713;BME280;51140;45.340;5.980;2023-07-29T11:50:15;97905.00;;;27.02;53.49
64713;BME280;51140;45.340;5.980;2023-07-29T11:52:42;97925.59;;;26.96;52.96
64713;BME280;51140;45.340;5.980;2023-07-29T11:55:08;97910.38;;;26.95;53.45
64713;BME280;51140;45.340;5.980;2023-07-29T11:57:36;97899.03;;;26.86;55.94
64713;BME280;51140;45.340;5.980;2023-07-29T12:00:06;97895.94;;;26.47;57.62
64713;BME280;51140;45.340;5.980;2023-07-29T12:02:36;97902.84;;;26.41;55.20
64713;BME280;51140;45.340;5.980;2023-07-29T12:05:04;97896.97;;;26.35;55.34
64713;BME280;51140;45.340;5.980;2023-07-29T12:07:30;97899.34;;;26.40;55.80
64713;BME280;51140;45.340;5.980;2023-07-29T12:09:56;97909.22;;;26.55;55.32
64713;BME280;51140;45.340;5.980;2023-07-29T12:12:22;97902.34;;;26.65;57.78
64713;BME280;51140;45.340;5.980;2023-07-29T12:14:48;97899.47;;;26.91;59.74
64713;BME280;51140;45.340;5.980;2023-07-29T12:17:14;97910.13;;;27.10;54.48
64713;BME280;51140;45.340;5.980;2023-07-29T12:19:41;97899.44;;;26.88;54.65
64713;BME280;51140;45.340;5.980;2023-07-29T12:22:08;97892.97;;;27.06;55.92
64713;BME280;51140;45.340;5.980;2023-07-29T12:24:39;97884.22;;;26.80;58.39
64713;BME280;51140;45.340;5.980;2023-07-29T12:27:05;97907.47;;;26.77;56.30
64713;BME280;51140;45.340;5.980;2023-07-29T12:29:31;97916.13;;;26.42;55.26
64713;BME280;51140;45.340;5.980;2023-07-29T12:34:26;97917.56;;;26.03;56.86
64713;BME280;51140;45.340;5.980;2023-07-29T12:36:52;97904.22;;;25.91;56.04
64713;BME280;51140;45.340;5.980;2023-07-29T12:39:19;97888.31;;;25.93;58.21
64713;BME280;51140;45.340;5.980;2023-07-29T12:41:46;97903.97;;;26.03;54.29
64713;BME280;51140;45.340;5.980;2023-07-29T12:44:12;97893.75;;;26.26;55.04
64713;BME280;51140;45.340;5.980;2023-07-29T12:46:38;97895.59;;;26.15;54.69
64713;BME280;51140;45.340;5.980;2023-07-29T12:49:03;97898.06;;;26.27;54.54
64713;BME280;51140;45.340;5.980;2023-07-29T12:51:28;97911.47;;;26.13;53.33
64713;BME280;51140;45.340;5.980;2023-07-29T12:53:54;97908.91;;;26.24;54.42
64713;BME280;51140;45.340;5.980;2023-07-29T12:56:19;97932.28;;;26.28;52.96
64713;BME280;51140;45.340;5.980;2023-07-29T12:58:45;97873.16;;;26.25;55.81
64713;BME280;51140;45.340;5.980;2023-07-29T13:01:10;97902.50;;;26.42;54.44
64713;BME280;51140;45.340;5.980;2023-07-29T13:03:41;97905.53;;;26.37;53.93
64713;BME280;51140;45.340;5.980;2023-07-29T13:06:07;97879.69;;;26.57;57.00